KPIE Airport Information


Runway Information
Runway 04 Length 5903 ft width 150 ft
Elevation 10 ft Threshold ft Heading 40
Runway 22 Length 5903 ft Width 150 ft
Elevation 5 ft Threshold ft Heading 220
Runway 09 Length 5165 ft width 150 ft
Elevation 10 ft Threshold ft Heading 88
Runway 27 Length 5165 ft Width 150 ft
Elevation 5 ft Threshold ft Heading 268
Runway 17R Length 4000 ft width 75 ft
Elevation 6 ft Threshold ft Heading 171
Runway 35L Length 4000 ft Width 75 ft
Elevation 8 ft Threshold 558 ft Heading 351
Runway 17L Length 8800 ft width 150 ft
Elevation 7 ft Threshold ft Heading 171
Runway 35R Length 8800 ft Width 150 ft
Elevation 10 ft Threshold 470 ft Heading 351
Runway 18 Length 9730 ft width 150 ft
Elevation 7 ft Threshold ft Heading 171
Runway 36 Length 9730 ft Width 150 ft
Elevation 10 ft Threshold ft Heading 351
Airport Frequencies
Type A/D Name TAMPA APP/ Frequency 125.3 MHZ
Type ATIS Name ATIS Frequency 134.5 MHZ
Type CLD Name CLNC DEL Frequency 120.6 MHZ
Type CTAF Name CTAF Frequency 118.3 MHZ
Type GND Name GND Frequency 121.9 MHZ
Type MISC Name AIR CG Frequency 38.18 MHZ
Type RDO Name RDO Frequency 122.2 MHZ
Type RDO Name RDO Frequency 122.1 MHZ
Type TWR Name TWR Frequency 118.3 MHZ
Type UNIC Name UNICOM Frequency 122.95 MHZ
Airport Navaids
Type NDB Name Capok Frequency 360 KHZ
Type VORTAC Name St Petersburg Frequency 116400 KHZ
Airport Weather Information & NOTAM
ADDS - METARS form results

(1452 UTC 26 November 2022)
Data provider http://aviationweather.gov/metar/data/
 
METAR text: KPIE 261437Z 08005KT 1 1/4SM R18/1800V3000FT BR OVC002 22/22 A3008 RMK AO2 T02220222
Conditions at: KPIE (ST PETERSBURG , FL, US) observed 1437 UTC 26 November 2022
Temperature: 22.2°C (72°F)
Dewpoint: 22.2°C (72°F) [RH = 100%]
Pressure (altimeter): 30.08 inches Hg (1018.7 mb)
Winds: from the E (80 degrees) at 6 MPH (5 knots; 2.6 m/s)
Visibility: 1.25 miles (2.01 km)
Ceiling: 200 feet AGL
Clouds: overcast cloud deck at 200 feet AGL
Weather: BR  (mist)

METAR text: KPIE 261431Z 08005KT 3/4SM R18/1600V2000FT BR OVC002 22/22 A3008 RMK AO2 T02220222
Conditions at: KPIE (ST PETERSBURG , FL, US) observed 1431 UTC 26 November 2022
Temperature: 22.2°C (72°F)
Dewpoint: 22.2°C (72°F) [RH = 100%]
Pressure (altimeter): 30.08 inches Hg (1018.7 mb)
Winds: from the E (80 degrees) at 6 MPH (5 knots; 2.6 m/s)
Visibility: 0.75 miles (1.21 km)
Ceiling: 200 feet AGL
Clouds: overcast cloud deck at 200 feet AGL
Weather: BR  (mist)

METAR text: KPIE 261423Z 09005KT 1/4SM R18/1600V2000FT FG VV002 22/22 A3008 RMK AO2 T02220222
Conditions at: KPIE (ST PETERSBURG , FL, US) observed 1423 UTC 26 November 2022
Temperature: 22.2°C (72°F)
Dewpoint: 22.2°C (72°F) [RH = 100%]
Pressure (altimeter): 30.08 inches Hg (1018.7 mb)
Winds: from the E (90 degrees) at 6 MPH (5 knots; 2.6 m/s)
Visibility: 0.25 miles (0.40 km)
Ceiling: indefinite ceiling with vertical visibility of 200 feet AGL
Clouds: obscured sky
Weather: FG  (fog)

METAR text: KPIE 261353Z 08005KT 1/4SM R18/1400V2600FT FG VV002 22/22 A3007 RMK AO2 SLP183 T02170217
Conditions at: KPIE (ST PETERSBURG , FL, US) observed 1353 UTC 26 November 2022
Temperature: 21.7°C (71°F)
Dewpoint: 21.7°C (71°F) [RH = 100%]
Pressure (altimeter): 30.07 inches Hg (1018.4 mb)
[Sea-level pressure: 1018.3 mb]
Winds: from the E (80 degrees) at 6 MPH (5 knots; 2.6 m/s)
Visibility: 0.25 miles (0.40 km)
Ceiling: indefinite ceiling with vertical visibility of 200 feet AGL
Clouds: obscured sky
Weather: FG  (fog)

Forecast for: KPIE (ST PETERSBURG , FL, US)
Text: KPIE 261440Z 2615/2712 10004KT P6SM SCT015 BKN025
Forecast period: 1500 to 1600 UTC 26 November 2022
Forecast type: FROM: standard forecast or significant change
Winds: from the E (100 degrees) at 5 MPH (4 knots; 2.1 m/s)
Visibility: 6 or more miles (10+ km)
Ceiling: 2500 feet AGL
Clouds: scattered clouds at 1500 feet AGL
broken clouds at 2500 feet AGL
Weather: no significant weather forecast for this period
Text: TEMPO 2615/2616 1SM BR BKN005
Forecast period: 1500 to 1600 UTC 26 November 2022
Forecast type: TEMPORARY: The following changes expected for less than half the time period
Visibility: 1.00 miles (1.61 km)
Ceiling: 500 feet AGL
Clouds: broken clouds at 500 feet AGL
Weather: BR  (mist)
Text: FM261600 15006KT P6SM SCT020 SCT250
Forecast period: 1600 to 2100 UTC 26 November 2022
Forecast type: FROM: standard forecast or significant change
Winds: from the SSE (150 degrees) at 7 MPH (6 knots; 3.1 m/s)
Visibility: 6 or more miles (10+ km)
Ceiling: at least 12,000 feet AGL
Clouds: scattered clouds at 2000 feet AGL
scattered clouds at 25000 feet AGL
Weather: no significant weather forecast for this period
Text: FM262100 22006KT P6SM SCT040 BKN250
Forecast period: 2100 UTC 26 November 2022 to 1200 UTC 27 November 2022
Forecast type: FROM: standard forecast or significant change
Winds: from the SW (220 degrees) at 7 MPH (6 knots; 3.1 m/s)
Visibility: 6 or more miles (10+ km)
Ceiling: 25000 feet AGL
Clouds: scattered clouds at 4000 feet AGL
broken clouds at 25000 feet AGL
Weather: no significant weather forecast for this period